Latest Coastal Weather Observations for Tasman Island

IDT60701

Issued at 7:51 am EDT Saturday 28 March 2015 (issued every 10 minutes, with the page automatically refreshed every 10 minutes)

About coastal observations | Map of coastal stations | Coastal observations for TAS | Marine services | Other Formats
Station Details ID: 094155 Name: TASMAN ISLAND Lat: -43.24 Lon: 148.00 Height: 240.0 m
Data from the previous 72 hours. | See also: Recent months at Tasman Island
Date/Time
EDT
Temp

°C
Wind Pressure Rain
since 9am
mm
Weather Cloud Vis
km
Sea
Height
m
Swell
Dir
 
Speed
knots
Gust
knots
hPa Trend Height
m
Period
s
Dir
28/07:30am 10.8 SW 9 22 1019.5 - 2.4 - - - - - - -
28/07:00am 10.7 W 7 19 1019.3 - 2.4 - - - - - - -
28/06:30am 10.8 SW 9 20 1018.9 - 2.4 - - - - - - -
28/06:14am 10.7 WSW 15 25 1018.9 - 2.4 - - - - - - -
28/06:00am 10.6 WSW 12 33 1018.9 - 2.4 - - - - - - -
28/05:30am 10.0 SW 13 38 1018.7 - 2.4 - - - - - - -
28/05:21am 10.0 SW 20 38 1018.5 - 2.4 - - - - - - -
28/05:19am 10.1 SW 18 36 1018.5 - 2.4 - - - - - - -
28/05:00am 10.2 SW 14 28 1018.5 - 2.4 - - - - - - -
28/04:30am 10.3 SSW 15 34 1018.4 - 2.4 - - - - - - -
28/04:29am 10.3 SSW 15 34 1018.4 - 2.4 - - - - - - -
28/04:00am 9.4 SW 14 27 1018.7 - 2.4 - - - - - - -
28/03:30am 10.0 SW 8 24 1019.1 - 2.4 - - - - - - -
28/03:00am 11.1 SW 12 25 1019.1 - 2.4 - - - - - - -
28/02:30am 11.2 SW 13 28 1018.9 - 2.4 - - - - - - -
28/02:04am 10.8 SW 15 28 1019.3 - 2.4 - - - - - - -
28/02:00am 10.8 SW 14 28 1019.2 - 2.4 - - - - - - -
28/01:32am 11.1 SW 17 28 1019.1 - 2.4 - - - - - - -
28/01:30am 11.1 SW 18 28 1019.1 - 2.4 - - - - - - -
28/01:00am 11.1 SW 16 29 1018.9 - 2.4 - - - - - - -
28/12:30am 10.7 SW 16 27 1018.9 - 2.4 - - - - - - -
28/12:01am 10.2 SW 18 28 1018.8 - 2.4 - - - - - - -
28/12:00am 10.1 SW 19 28 1018.8 - 2.4 - - - - - - -
 
Date/Time
EDT
Temp

°C
Wind Pressure Rain
since 9am
mm
Weather Cloud Vis
km
Sea
Height
m
Swell
Dir
 
Speed
knots
Gust
knots
hPa Trend Height
m
Period
s
Dir
27/11:30pm 11.2 SSW 18 33 1018.7 - 2.4 - - - - - - -
27/11:01pm 11.6 SSW 15 26 1018.8 - 2.4 - - - - - - -
27/11:00pm 11.6 SSW 14 25 1018.8 - 2.4 - - - - - - -
27/10:30pm 11.4 SSW 18 22 1018.7 - 2.4 - - - - - - -
27/10:00pm 11.5 SSW 17 24 1018.6 - 2.4 - - - - - - -
27/09:30pm 11.5 SSW 18 25 1018.4 - 2.4 - - - - - - -
27/09:00pm 11.4 SSW 19 27 1018.2 - 2.4 Recent precip. - - - - - -
27/08:30pm 11.6 SSW 19 27 1017.8 - 2.4 - - - - - - -
27/08:00pm 11.3 SSW 15 23 1017.3 - 2.2 - - - - - - -
27/07:44pm 11.7 SSW 18 28 1017.2 - 2.2 - - - - - - -
27/07:30pm 11.4 SSW 18 26 1016.9 - 2.2 - - - - - - -
27/07:08pm 11.2 SSW 18 29 1016.6 - 2.2 - - - - - - -
27/07:00pm 11.4 SSW 17 26 1016.4 - 2.2 - - - - - - -
27/06:55pm 11.5 SSW 15 26 1016.4 - 2.2 - - - - - - -
27/06:30pm 11.4 SSW 17 25 1016.0 - 2.2 - - - - - - -
27/06:11pm 10.9 SSW 17 27 1015.7 - 2.2 - - - - - - -
27/06:00pm 11.1 SSW 19 27 1015.6 - 2.2 - - - - - - -
27/05:30pm 12.2 SSW 17 23 1015.2 - 2.2 - - - - - - -
27/05:13pm 12.2 SSW 15 25 1015.0 - 2.2 - - - - - - -
27/05:00pm 12.3 SSW 15 21 1014.8 - 2.2 - - - - - - -
27/04:30pm 12.4 SSW 14 20 1014.6 - 2.2 - - - - - - -
27/04:00pm 13.6 SSW 12 20 1014.4 - 2.2 - - - - - - -
27/03:30pm 13.2 SSW 13 21 1014.2 - 2.2 - - - - - - -
27/03:00pm 12.9 SSW 12 20 1014.0 - 2.2 - - - - - - -
27/02:30pm 13.2 SSW 14 23 1013.6 - 2.2 - - - - - - -
27/02:00pm 12.7 SSW 13 22 1013.3 - 2.2 - - - - - - -
27/01:30pm 14.6 S 9 15 1013.4 - 2.2 - - - - - - -
27/01:00pm 13.8 SSE 10 17 1013.2 - 2.2 - - - - - - -
27/12:30pm 12.9 SSE 13 22 1012.8 - 2.2 - - - - - - -
27/12:00pm 12.9 SSE 13 20 1012.3 - 2.2 Recent precip. - - - - - -
27/11:30am 12.2 S 11 19 1011.9 - 2.2 - - - - - - -
27/11:00am 11.7 S 11 19 1011.2 - 2.0 - - - - - - -
27/10:30am 11.3 S 12 19 1010.9 - 1.6 - - - - - - -
27/10:00am 11.7 S 11 19 1010.6 - 1.6 - - - - - - -
27/09:30am 10.8 S 11 19 1010.2 - 1.6 - - - - - - -
27/09:00am 10.2 SSW 15 21 1009.8 - 84.0 Rain - - - - - -
27/08:30am 10.1 SSW 13 19 1009.3 - 83.2 - - - - - - -
27/08:00am 10.3 S 10 26 1008.9 - 82.8 - - - - - - -
27/07:30am 9.6 NE 6 20 1008.4 - 78.0 - - - - - - -
27/07:00am 9.4 SW 5 14 1008.1 - 76.4 - - - - - - -
27/06:30am 9.3 ENE 4 14 1008.0 - 75.4 - - - - - - -
27/06:00am 9.3 SE 5 16 1007.8 - 75.2 Rain - - - - - -
27/05:30am 9.4 NNE 5 11 1007.8 - 73.6 - - - - - - -
27/05:00am 9.6 SE 4 16 1008.1 - 71.0 - - - - - - -
27/04:30am 9.4 ESE 4 15 1007.9 - 70.8 - - - - - - -
27/04:00am 9.7 W 6 16 1008.3 - 69.8 - - - - - - -
27/03:30am 9.8 WSW 8 19 1008.4 - 69.2 - - - - - - -
27/03:00am 9.9 WSW 9 19 1008.8 - 67.4 Rain - - - - - -
27/02:30am 9.7 SW 8 17 1009.1 - 65.8 - - - - - - -
27/02:00am 9.9 SW 8 20 1009.2 - 64.6 - - - - - - -
27/01:39am 9.9 SSW 15 27 1009.2 - 64.2 - - - - - - -
27/01:30am 10.0 SSW 12 22 1009.2 - 64.0 - - - - - - -
27/01:09am 9.8 SW 16 26 1009.4 - 63.6 - - - - - - -
27/01:00am 10.0 SW 12 23 1009.4 - 61.8 - - - - - - -
27/12:44am 9.7 SW 15 26 1009.6 - 61.0 - - - - - - -
27/12:30am 9.5 SW 14 23 1009.9 - 60.6 - - - - - - -
27/12:00am 9.6 SSW 11 19 1010.0 - 60.4 Rain - - - - - -
 
Date/Time
EDT
Temp

°C
Wind Pressure Rain
since 9am
mm
Weather Cloud Vis
km
Sea
Height
m
Swell
Dir
 
Speed
knots
Gust
knots
hPa Trend Height
m
Period
s
Dir
26/11:30pm 9.7 SSW 12 18 1010.5 - 59.0 - - - - - - -
26/11:00pm 9.6 SSW 15 24 1010.5 - 54.8 - - - - - - -
26/10:30pm 9.9 WSW 12 30 1010.1 - 49.2 - - - - - - -
26/10:29pm 9.8 WSW 12 29 1010.1 - 49.0 - - - - - - -
26/10:00pm 8.9 W 8 18 1010.4 - 25.0 - - - - - - -
26/09:30pm 10.4 W 9 23 1010.1 - 17.2 - - - - - - -
26/09:00pm 11.1 W 3 9 1010.4 - 17.2 - - - - - - -
26/08:30pm 11.3 SW 3 11 1010.3 - 17.2 - - - - - - -
26/08:00pm 10.7 W 5 7 1010.3 - 17.2 - - - - - - -
26/07:30pm 10.5 W 2 5 1010.0 - 17.2 - - - - - - -
26/07:00pm 10.8 W 3 5 1009.6 - 17.2 - - - - - - -
26/06:30pm 12.2 WNW 3 5 1009.7 - 17.2 - - - - - - -
26/06:00pm 12.6 W 3 5 1009.6 - 17.0 - - - - - - -
26/05:30pm 10.9 W 6 7 1009.4 - 17.0 - - - - - - -
26/05:00pm 10.2 WNW 7 15 1009.8 - 17.0 - - - - - - -
26/04:30pm 12.8 NNE 8 14 1009.9 - 13.2 - - - - - - -
26/04:00pm 12.8 NNE 10 16 1009.7 - 13.2 - - - - - - -
26/03:30pm 12.5 NNE 9 13 1009.7 - 13.2 - - - - - - -
26/03:00pm 14.0 NNE 7 11 1010.0 - 13.2 - - - - - - -
26/02:30pm 14.2 NNE 9 12 1010.2 - 13.2 - - - - - - -
26/02:00pm 12.8 NNE 9 13 1010.7 - 13.2 - - - - - - -
26/01:30pm 13.1 NNE 10 14 1010.7 - 13.2 - - - - - - -
26/01:00pm 12.5 N 11 16 1010.7 - 13.2 - - - - - - -
26/12:30pm 11.5 NNE 11 17 1010.9 - 13.2 - - - - - - -
26/12:00pm 11.6 NNE 9 15 1011.0 - 13.2 - - - - - - -
26/11:30am 11.3 SW 1 3 1010.9 - 13.2 - - - - - - -
26/11:00am 10.8 W 7 10 1010.8 - 13.2 - - - - - - -
26/10:30am 10.5 WSW 8 13 1010.8 - 13.0 - - - - - - -
26/10:00am 10.6 WNW 14 29 1010.9 - 11.2 - - - - - - -
26/09:51am 10.7 WNW 15 25 1011.0 - 10.6 - - - - - - -
26/09:30am 13.1 E 10 24 1010.5 - 2.2 - - - - - - -
26/09:00am 13.0 E 11 24 1010.7 - 0.6 Rain - - - - - -
26/08:30am 13.4 NE 7 18 1011.0 - 0.0 - - - - - - -
26/08:00am 13.3 NNE 9 25 1011.4 - 0.0 - - - - - - -
26/07:30am 12.9 NE 10 17 1011.3 - 0.0 - - - - - - -
26/07:00am 12.4 NNE 10 16 1011.2 - 0.0 - - - - - - -
26/06:30am 12.2 NNE 9 14 1011.9 - 0.0 - - - - - - -
26/06:00am 12.1 NE 8 13 1012.0 - 0.0 - - - - - - -
26/05:30am 11.9 NE 7 10 1012.7 - 0.0 - - - - - - -
26/05:00am 11.8 NE 5 9 1012.7 - 0.0 - - - - - - -
26/04:30am 11.4 N 7 10 1013.0 - 0.0 - - - - - - -
26/04:00am 11.5 NNE 6 9 1013.2 - 0.0 - - - - - - -
26/03:30am 11.8 N 6 11 1013.5 - 0.0 - - - - - - -
26/03:00am 12.3 N 6 10 1013.6 - 0.0 - - - - - - -
26/02:30am 13.2 N 6 13 1013.9 - 0.0 - - - - - - -
26/02:00am 13.4 NNE 7 15 1013.9 - 0.0 - - - - - - -
26/01:30am 13.3 NE 6 19 1014.2 - 0.0 - - - - - - -
26/01:00am 13.3 N 6 20 1014.4 - 0.0 - - - - - - -
26/12:30am 13.3 NE 5 14 1014.2 - 0.0 - - - - - - -
26/12:00am 13.3 N 5 11 1014.3 - 0.0 - - - - - - -
 
Date/Time
EDT
Temp

°C
Wind Pressure Rain
since 9am
mm
Weather Cloud Vis
km
Sea
Height
m
Swell
Dir
 
Speed
knots
Gust
knots
hPa Trend Height
m
Period
s
Dir
25/11:30pm 13.2 NE 10 19 1014.4 - 0.0 - - - - - - -
25/11:00pm 13.0 NE 9 19 1014.3 - 0.0 - - - - - - -
25/10:30pm 13.1 NNE 14 22 1014.5 - 0.0 - - - - - - -
25/10:00pm 13.0 NNE 13 23 1014.4 - 0.0 - - - - - - -
25/09:30pm 13.0 NNE 12 19 1014.3 - 0.0 - - - - - - -
25/09:00pm 12.9 NNE 13 21 1014.3 - 0.0 - - - - - - -
25/08:30pm 12.8 NNE 11 18 1014.1 - 0.0 - - - - - - -
25/08:00pm 12.9 NNE 14 20 1014.0 - 0.0 - - - - - - -
25/07:30pm 12.8 NE 10 19 1013.7 - 0.0 - - - - - - -
25/07:00pm 12.9 NNE 9 18 1013.8 - 0.0 - - - - - - -
25/06:30pm 13.1 NNE 8 15 1013.7 - 0.0 - - - - - - -
25/06:00pm 13.4 NNE 8 17 1013.3 - 0.0 - - - - - - -
25/05:30pm 13.3 NNE 7 14 1013.3 - 0.0 - - - - - - -
25/05:00pm 13.0 NNE 11 19 1013.2 - 0.0 - - - - - - -
25/04:30pm 12.9 NNE 13 19 1013.2 - 0.0 - - - - - - -
25/04:00pm 13.0 NNE 13 19 1013.2 - 0.0 - - - - - - -
25/03:30pm 13.5 NNE 12 16 1013.4 - 0.0 - - - - - - -
25/03:00pm 14.0 NNE 12 18 1013.5 - 0.0 - - - - - - -
25/02:30pm 13.5 NNE 9 16 1013.7 - 0.0 - - - - - - -
25/02:00pm 15.4 NNE 7 13 1014.1 - 0.0 - - - - - - -
25/01:30pm 15.3 NNW 7 12 1014.3 - 0.0 - - - - - - -
25/01:00pm 15.1 NW 5 9 1014.7 - 0.0 - - - - - - -
25/12:30pm 14.3 NNW 6 10 1014.7 - 0.0 - - - - - - -
25/12:00pm 14.1 NW 9 13 1014.8 - 0.0 - - - - - - -
25/11:30am 14.3 NNW 7 12 1014.9 - 0.0 - - - - - - -
25/11:00am 13.5 NW 7 11 1014.9 - 0.0 - - - - - - -
25/10:30am 14.3 NNW 8 11 1014.9 - 0.0 - - - - - - -
25/10:00am 13.1 NNW 10 13 1014.8 - 0.0 - - - - - - -
25/09:30am 11.3 NNW 8 13 1014.8 - 0.0 - - - - - - -
25/09:00am 11.2 NW 8 12 1014.9 - 0.0 - - - - - - -
25/08:30am 11.2 NW 11 16 1014.8 - 0.0 - - - - - - -
25/08:00am 10.4 NNW 8 12 1014.6 - 0.0 - - - - - - -

Other Formats:

Comma delimited format used in spreadsheet applications
http://www.bom.gov.au/fwo/IDT60701/IDT60701.95986.axf

JavaScript Object Notation format (JSON) in row-major order
http://www.bom.gov.au/fwo/IDT60701/IDT60701.95986.json